sensor_id;sensor_type;location;lat;lon;timestamp;pressure;altitude;pressure_sealevel;temperature
61189;BMP280;47054;39.716;2.904;2022-12-07T00:01:11;100138.03;;;17.78
61189;BMP280;47054;39.716;2.904;2022-12-07T00:03:58;100138.03;;;17.75
61189;BMP280;47054;39.716;2.904;2022-12-07T00:06:51;100143.75;;;17.77
61189;BMP280;47054;39.716;2.904;2022-12-07T00:09:36;100144.94;;;17.76
61189;BMP280;47054;39.716;2.904;2022-12-07T00:12:21;100134.97;;;17.76
61189;BMP280;47054;39.716;2.904;2022-12-07T00:15:06;100138.78;;;17.75
61189;BMP280;47054;39.716;2.904;2022-12-07T00:17:51;100153.72;;;17.76
61189;BMP280;47054;39.716;2.904;2022-12-07T00:20:35;100152.97;;;17.76
61189;BMP280;47054;39.716;2.904;2022-12-07T00:23:20;100141.47;;;17.75
61189;BMP280;47054;39.716;2.904;2022-12-07T00:26:18;100136.50;;;17.77
61189;BMP280;47054;39.716;2.904;2022-12-07T00:29:21;100133.03;;;17.77
61189;BMP280;47054;39.716;2.904;2022-12-07T00:32:07;100138.78;;;17.75
61189;BMP280;47054;39.716;2.904;2022-12-07T00:34:51;100129.19;;;17.74
61189;BMP280;47054;39.716;2.904;2022-12-07T00:37:36;100129.19;;;17.74
61189;BMP280;47054;39.716;2.904;2022-12-07T00:40:20;100130.75;;;17.75
61189;BMP280;47054;39.716;2.904;2022-12-07T00:43:05;100120.03;;;17.75
61189;BMP280;47054;39.716;2.904;2022-12-07T00:45:49;100115.44;;;17.76
61189;BMP280;47054;39.716;2.904;2022-12-07T00:48:34;100114.66;;;17.75
61189;BMP280;47054;39.716;2.904;2022-12-07T00:51:21;100097.75;;;17.71
61189;BMP280;47054;39.716;2.904;2022-12-07T00:54:06;100097.38;;;17.73
61189;BMP280;47054;39.716;2.904;2022-12-07T00:56:51;100098.56;;;17.75
61189;BMP280;47054;39.716;2.904;2022-12-07T00:59:35;100087.00;;;17.71
61189;BMP280;47054;39.716;2.904;2022-12-07T01:02:21;100095.88;;;17.75
61189;BMP280;47054;39.716;2.904;2022-12-07T01:05:06;100096.66;;;17.76
61189;BMP280;47054;39.716;2.904;2022-12-07T01:07:50;100093.22;;;17.75
61189;BMP280;47054;39.716;2.904;2022-12-07T01:10:35;100093.22;;;17.75
61189;BMP280;47054;39.716;2.904;2022-12-07T01:13:19;100094.34;;;17.74
61189;BMP280;47054;39.716;2.904;2022-12-07T01:16:05;100096.66;;;17.76
61189;BMP280;47054;39.716;2.904;2022-12-07T01:18:52;100097.78;;;17.75
61189;BMP280;47054;39.716;2.904;2022-12-07T01:21:38;100094.34;;;17.74
61189;BMP280;47054;39.716;2.904;2022-12-07T01:24:22;100093.56;;;17.74
61189;BMP280;47054;39.716;2.904;2022-12-07T01:27:07;100105.06;;;17.74
61189;BMP280;47054;39.716;2.904;2022-12-07T01:29:51;100097.38;;;17.69
61189;BMP280;47054;39.716;2.904;2022-12-07T01:32:35;100088.16;;;17.70
61189;BMP280;47054;39.716;2.904;2022-12-07T01:35:20;100088.97;;;17.74
61189;BMP280;47054;39.716;2.904;2022-12-07T01:38:04;100093.56;;;17.74
61189;BMP280;47054;39.716;2.904;2022-12-07T01:40:54;100088.19;;;17.74
61189;BMP280;47054;39.716;2.904;2022-12-07T01:44:09;100087.41;;;17.73
61189;BMP280;47054;39.716;2.904;2022-12-07T01:46:56;100093.94;;;17.72
61189;BMP280;47054;39.716;2.904;2022-12-07T01:49:44;100094.72;;;17.73
61189;BMP280;47054;39.716;2.904;2022-12-07T01:52:31;100088.56;;;17.72
61189;BMP280;47054;39.716;2.904;2022-12-07T01:55:17;100089.34;;;17.73
61189;BMP280;47054;39.716;2.904;2022-12-07T01:58:02;100085.09;;;17.68
61189;BMP280;47054;39.716;2.904;2022-12-07T02:00:47;100073.94;;;17.66
61189;BMP280;47054;39.716;2.904;2022-12-07T02:03:39;100082.84;;;17.74
61189;BMP280;47054;39.716;2.904;2022-12-07T02:06:25;100093.94;;;17.72
61189;BMP280;47054;39.716;2.904;2022-12-07T02:09:11;100097.38;;;17.73
61189;BMP280;47054;39.716;2.904;2022-12-07T02:11:57;100089.69;;;17.71
61189;BMP280;47054;39.716;2.904;2022-12-07T02:14:42;100089.31;;;17.69
61189;BMP280;47054;39.716;2.904;2022-12-07T02:20:31;100096.63;;;17.72
61189;BMP280;47054;39.716;2.904;2022-12-07T02:23:40;100092.38;;;17.71
61189;BMP280;47054;39.716;2.904;2022-12-07T02:26:35;100093.91;;;17.69
61189;BMP280;47054;39.716;2.904;2022-12-07T02:35:55;100077.38;;;17.67
61189;BMP280;47054;39.716;2.904;2022-12-07T02:38:58;100073.59;;;17.68
61189;BMP280;47054;39.716;2.904;2022-12-07T02:41:51;100083.19;;;17.69
61189;BMP280;47054;39.716;2.904;2022-12-07T02:44:37;100070.91;;;17.68
61189;BMP280;47054;39.716;2.904;2022-12-07T02:47:23;100062.84;;;17.68
61189;BMP280;47054;39.716;2.904;2022-12-07T02:50:09;100053.63;;;17.62
61189;BMP280;47054;39.716;2.904;2022-12-07T02:52:54;100068.22;;;17.68
61189;BMP280;47054;39.716;2.904;2022-12-07T02:55:41;100058.28;;;17.68
61189;BMP280;47054;39.716;2.904;2022-12-07T03:05:31;100059.41;;;17.67
61189;BMP280;47054;39.716;2.904;2022-12-07T03:11:38;100059.41;;;17.67
61189;BMP280;47054;39.716;2.904;2022-12-07T03:14:34;100069.34;;;17.67
61189;BMP280;47054;39.716;2.904;2022-12-07T03:17:32;100061.66;;;17.62
61189;BMP280;47054;39.716;2.904;2022-12-07T03:20:21;100065.53;;;17.64
61189;BMP280;47054;39.716;2.904;2022-12-07T03:23:07;100074.72;;;17.67
61189;BMP280;47054;39.716;2.904;2022-12-07T03:25:57;100075.91;;;17.66
61189;BMP280;47054;39.716;2.904;2022-12-07T03:28:50;100075.50;;;17.67
61189;BMP280;47054;39.716;2.904;2022-12-07T03:31:41;100072.03;;;17.67
61189;BMP280;47054;39.716;2.904;2022-12-07T03:34:40;100052.09;;;17.61
61189;BMP280;47054;39.716;2.904;2022-12-07T03:37:56;100065.16;;;17.66
61189;BMP280;47054;39.716;2.904;2022-12-07T03:40:45;100069.28;;;17.56
61189;BMP280;47054;39.716;2.904;2022-12-07T03:43:34;100062.41;;;17.59
61189;BMP280;47054;39.716;2.904;2022-12-07T03:49:46;100058.19;;;17.61
61189;BMP280;47054;39.716;2.904;2022-12-07T03:52:40;100050.16;;;17.61
61189;BMP280;47054;39.716;2.904;2022-12-07T03:58:16;100053.25;;;17.63
61189;BMP280;47054;39.716;2.904;2022-12-07T04:01:02;100052.50;;;17.63
61189;BMP280;47054;39.716;2.904;2022-12-07T04:03:47;100051.72;;;17.62
61189;BMP280;47054;39.716;2.904;2022-12-07T04:06:32;100051.34;;;17.64
61189;BMP280;47054;39.716;2.904;2022-12-07T04:09:17;100056.69;;;17.64
61189;BMP280;47054;39.716;2.904;2022-12-07T04:12:02;100054.03;;;17.64
61189;BMP280;47054;39.716;2.904;2022-12-07T04:14:47;100045.56;;;17.58
61189;BMP280;47054;39.716;2.904;2022-12-07T04:17:31;100046.75;;;17.64
61189;BMP280;47054;39.716;2.904;2022-12-07T04:20:16;100049.81;;;17.63
61189;BMP280;47054;39.716;2.904;2022-12-07T04:23:00;100050.94;;;17.62
61189;BMP280;47054;39.716;2.904;2022-12-07T04:25:48;100047.47;;;17.61
61189;BMP280;47054;39.716;2.904;2022-12-07T04:28:33;100051.34;;;17.64
61189;BMP280;47054;39.716;2.904;2022-12-07T04:31:17;100052.91;;;17.65
61189;BMP280;47054;39.716;2.904;2022-12-07T04:34:02;100047.53;;;17.65
61189;BMP280;47054;39.716;2.904;2022-12-07T04:36:48;100050.22;;;17.65
61189;BMP280;47054;39.716;2.904;2022-12-07T04:39:33;100043.28;;;17.64
61189;BMP280;47054;39.716;2.904;2022-12-07T04:42:17;100050.22;;;17.65
61189;BMP280;47054;39.716;2.904;2022-12-07T04:45:02;100050.22;;;17.65
61189;BMP280;47054;39.716;2.904;2022-12-07T04:47:47;100049.81;;;17.63
61189;BMP280;47054;39.716;2.904;2022-12-07T04:50:32;100047.88;;;17.63
61189;BMP280;47054;39.716;2.904;2022-12-07T04:53:17;100043.66;;;17.59
61189;BMP280;47054;39.716;2.904;2022-12-07T04:56:01;100046.34;;;17.62
61189;BMP280;47054;39.716;2.904;2022-12-07T04:58:47;100044.44;;;17.63
61189;BMP280;47054;39.716;2.904;2022-12-07T05:01:32;100046.34;;;17.62
61189;BMP280;47054;39.716;2.904;2022-12-07T05:04:16;100045.97;;;17.64
61189;BMP280;47054;39.716;2.904;2022-12-07T05:07:02;100037.16;;;17.63
61189;BMP280;47054;39.716;2.904;2022-12-07T05:09:46;100039.09;;;17.63
61189;BMP280;47054;39.716;2.904;2022-12-07T05:12:30;100028.69;;;17.58
61189;BMP280;47054;39.716;2.904;2022-12-07T05:15:15;100037.16;;;17.63
61189;BMP280;47054;39.716;2.904;2022-12-07T05:18:00;100040.22;;;17.62
61189;BMP280;47054;39.716;2.904;2022-12-07T05:20:45;100044.44;;;17.63
61189;BMP280;47054;39.716;2.904;2022-12-07T05:23:30;100042.91;;;17.62
61189;BMP280;47054;39.716;2.904;2022-12-07T05:26:15;100040.22;;;17.62
61189;BMP280;47054;39.716;2.904;2022-12-07T05:28:59;100047.13;;;17.63
61189;BMP280;47054;39.716;2.904;2022-12-07T05:31:44;100048.25;;;17.62
61189;BMP280;47054;39.716;2.904;2022-12-07T05:34:29;100038.31;;;17.62
61189;BMP280;47054;39.716;2.904;2022-12-07T05:37:13;100036.75;;;17.61
61189;BMP280;47054;39.716;2.904;2022-12-07T05:39:58;100031.41;;;17.61
61189;BMP280;47054;39.716;2.904;2022-12-07T05:42:51;100030.22;;;17.55
61189;BMP280;47054;39.716;2.904;2022-12-07T05:45:36;100034.81;;;17.58
61189;BMP280;47054;39.716;2.904;2022-12-07T05:48:20;100036.75;;;17.61
61189;BMP280;47054;39.716;2.904;2022-12-07T05:51:05;100039.44;;;17.61
61189;BMP280;47054;39.716;2.904;2022-12-07T05:53:49;100034.06;;;17.61
61189;BMP280;47054;39.716;2.904;2022-12-07T05:56:34;100026.00;;;17.58
61189;BMP280;47054;39.716;2.904;2022-12-07T05:59:18;100026.38;;;17.56
61189;BMP280;47054;39.716;2.904;2022-12-07T06:02:13;100021.03;;;17.56
61189;BMP280;47054;39.716;2.904;2022-12-07T06:04:58;100036.38;;;17.59
61189;BMP280;47054;39.716;2.904;2022-12-07T06:07:42;100043.28;;;17.60
61189;BMP280;47054;39.716;2.904;2022-12-07T06:10:27;100039.81;;;17.60
61189;BMP280;47054;39.716;2.904;2022-12-07T06:13:11;100048.63;;;17.60
61189;BMP280;47054;39.716;2.904;2022-12-07T06:15:56;100040.53;;;17.57
61189;BMP280;47054;39.716;2.904;2022-12-07T06:18:40;100059.34;;;17.60
61189;BMP280;47054;39.716;2.904;2022-12-07T06:21:25;100049.78;;;17.59
61189;BMP280;47054;39.716;2.904;2022-12-07T06:24:12;100047.84;;;17.60
61189;BMP280;47054;39.716;2.904;2022-12-07T06:26:57;100055.16;;;17.59
61189;BMP280;47054;39.716;2.904;2022-12-07T06:29:42;100058.59;;;17.60
61189;BMP280;47054;39.716;2.904;2022-12-07T06:32:27;100067.41;;;17.60
61189;BMP280;47054;39.716;2.904;2022-12-07T06:35:11;100060.50;;;17.59
61189;BMP280;47054;39.716;2.904;2022-12-07T06:37:56;100065.84;;;17.56
61189;BMP280;47054;39.716;2.904;2022-12-07T06:40:40;100062.41;;;17.59
61189;BMP280;47054;39.716;2.904;2022-12-07T06:43:25;100065.09;;;17.59
61189;BMP280;47054;39.716;2.904;2022-12-07T06:46:09;100067.78;;;17.59
61189;BMP280;47054;39.716;2.904;2022-12-07T06:48:54;100069.69;;;17.58
61189;BMP280;47054;39.716;2.904;2022-12-07T06:51:38;100067.00;;;17.58
61189;BMP280;47054;39.716;2.904;2022-12-07T06:54:25;100061.97;;;17.57
61189;BMP280;47054;39.716;2.904;2022-12-07T06:57:10;100065.09;;;17.59
61189;BMP280;47054;39.716;2.904;2022-12-07T06:59:54;100058.56;;;17.56
61189;BMP280;47054;39.716;2.904;2022-12-07T07:02:39;100058.94;;;17.55
61189;BMP280;47054;39.716;2.904;2022-12-07T07:05:23;100070.47;;;17.59
61189;BMP280;47054;39.716;2.904;2022-12-07T07:08:08;100057.41;;;17.57
61189;BMP280;47054;39.716;2.904;2022-12-07T07:10:52;100053.56;;;17.51
61189;BMP280;47054;39.716;2.904;2022-12-07T07:13:37;100059.31;;;17.57
61189;BMP280;47054;39.716;2.904;2022-12-07T07:16:22;100066.22;;;17.58
61189;BMP280;47054;39.716;2.904;2022-12-07T07:19:07;100076.16;;;17.57
61189;BMP280;47054;39.716;2.904;2022-12-07T07:21:51;100064.63;;;17.50
61189;BMP280;47054;39.716;2.904;2022-12-07T07:24:36;100081.53;;;17.57
61189;BMP280;47054;39.716;2.904;2022-12-07T07:27:20;100086.13;;;17.57
61189;BMP280;47054;39.716;2.904;2022-12-07T07:30:05;100080.75;;;17.57
61189;BMP280;47054;39.716;2.904;2022-12-07T07:32:50;100077.69;;;17.51
61189;BMP280;47054;39.716;2.904;2022-12-07T07:35:35;100070.78;;;17.54
61189;BMP280;47054;39.716;2.904;2022-12-07T07:38:19;100085.38;;;17.56
61189;BMP280;47054;39.716;2.904;2022-12-07T07:41:04;100087.28;;;17.56
61189;BMP280;47054;39.716;2.904;2022-12-07T07:43:49;100095.34;;;17.56
61189;BMP280;47054;39.716;2.904;2022-12-07T07:46:33;100100.69;;;17.56
61189;BMP280;47054;39.716;2.904;2022-12-07T07:49:18;100096.81;;;17.53
61189;BMP280;47054;39.716;2.904;2022-12-07T07:52:02;100109.09;;;17.54
61189;BMP280;47054;39.716;2.904;2022-12-07T07:54:47;100109.09;;;17.54
61189;BMP280;47054;39.716;2.904;2022-12-07T07:57:32;100108.75;;;17.56
61189;BMP280;47054;39.716;2.904;2022-12-07T08:00:17;100116.00;;;17.55
61189;BMP280;47054;39.716;2.904;2022-12-07T08:03:01;100109.41;;;17.49
61189;BMP280;47054;39.716;2.904;2022-12-07T08:05:46;100119.81;;;17.54
61189;BMP280;47054;39.716;2.904;2022-12-07T08:08:31;100109.44;;;17.53
61189;BMP280;47054;39.716;2.904;2022-12-07T08:11:16;100122.50;;;17.54
61189;BMP280;47054;39.716;2.904;2022-12-07T08:14:01;100122.50;;;17.54
61189;BMP280;47054;39.716;2.904;2022-12-07T08:16:45;100119.03;;;17.54
61189;BMP280;47054;39.716;2.904;2022-12-07T08:19:30;100123.63;;;17.53
61189;BMP280;47054;39.716;2.904;2022-12-07T08:22:14;100116.34;;;17.54
61189;BMP280;47054;39.716;2.904;2022-12-07T08:24:59;100127.06;;;17.54
61189;BMP280;47054;39.716;2.904;2022-12-07T08:27:43;100117.81;;;17.48
61189;BMP280;47054;39.716;2.904;2022-12-07T08:30:29;100125.53;;;17.53
61189;BMP280;47054;39.716;2.904;2022-12-07T08:33:13;100128.19;;;17.53
61189;BMP280;47054;39.716;2.904;2022-12-07T08:36:03;100124.41;;;17.54
61189;BMP280;47054;39.716;2.904;2022-12-07T08:38:49;100125.16;;;17.51
61189;BMP280;47054;39.716;2.904;2022-12-07T08:41:33;100130.13;;;17.52
61189;BMP280;47054;39.716;2.904;2022-12-07T08:44:17;100119.78;;;17.51
61189;BMP280;47054;39.716;2.904;2022-12-07T08:47:04;100117.41;;;17.46
61189;BMP280;47054;39.716;2.904;2022-12-07T08:49:51;100132.06;;;17.52
61189;BMP280;47054;39.716;2.904;2022-12-07T08:52:37;100120.88;;;17.46
61189;BMP280;47054;39.716;2.904;2022-12-07T08:55:22;100137.78;;;17.50
61189;BMP280;47054;39.716;2.904;2022-12-07T08:58:07;100129.72;;;17.50
61189;BMP280;47054;39.716;2.904;2022-12-07T09:00:51;100139.31;;;17.51
61189;BMP280;47054;39.716;2.904;2022-12-07T09:03:36;100124.28;;;17.43
61189;BMP280;47054;39.716;2.904;2022-12-07T09:06:20;100128.53;;;17.44
61189;BMP280;47054;39.716;2.904;2022-12-07T09:09:05;100118.56;;;17.45
61189;BMP280;47054;39.716;2.904;2022-12-07T09:11:51;100130.84;;;17.49
61189;BMP280;47054;39.716;2.904;2022-12-07T09:14:36;100127.44;;;17.49
61189;BMP280;47054;39.716;2.904;2022-12-07T09:17:20;100122.03;;;17.45
61189;BMP280;47054;39.716;2.904;2022-12-07T09:20:06;100138.91;;;17.49
61189;BMP280;47054;39.716;2.904;2022-12-07T09:22:51;100135.81;;;17.47
61189;BMP280;47054;39.716;2.904;2022-12-07T09:25:35;100135.47;;;17.49
61189;BMP280;47054;39.716;2.904;2022-12-07T09:28:20;100141.94;;;17.48
61189;BMP280;47054;39.716;2.904;2022-12-07T09:31:05;100142.69;;;17.45
61189;BMP280;47054;39.716;2.904;2022-12-07T09:34:00;100149.63;;;17.49
61189;BMP280;47054;39.716;2.904;2022-12-07T09:36:44;100146.53;;;17.47
61189;BMP280;47054;39.716;2.904;2022-12-07T09:39:29;100147.31;;;17.48
61189;BMP280;47054;39.716;2.904;2022-12-07T09:42:27;100152.28;;;17.49
61189;BMP280;47054;39.716;2.904;2022-12-07T09:45:22;100146.53;;;17.47
61189;BMP280;47054;39.716;2.904;2022-12-07T09:48:40;100142.28;;;17.43
61189;BMP280;47054;39.716;2.904;2022-12-07T09:51:26;100141.53;;;17.46
61189;BMP280;47054;39.716;2.904;2022-12-07T09:54:16;100147.69;;;17.46
61189;BMP280;47054;39.716;2.904;2022-12-07T09:57:01;100144.22;;;17.46
61189;BMP280;47054;39.716;2.904;2022-12-07T09:59:45;100151.53;;;17.45
61189;BMP280;47054;39.716;2.904;2022-12-07T10:02:37;100145.78;;;17.47
61189;BMP280;47054;39.716;2.904;2022-12-07T10:05:44;100140.78;;;17.45
61189;BMP280;47054;39.716;2.904;2022-12-07T10:08:29;100132.66;;;17.38
61189;BMP280;47054;39.716;2.904;2022-12-07T10:11:14;100149.97;;;17.44
61189;BMP280;47054;39.716;2.904;2022-12-07T10:14:11;100144.22;;;17.46
61189;BMP280;47054;39.716;2.904;2022-12-07T10:16:56;100133.06;;;17.40
61189;BMP280;47054;39.716;2.904;2022-12-07T10:19:41;100137.69;;;17.43
61189;BMP280;47054;39.716;2.904;2022-12-07T10:22:26;100138.13;;;17.45
61189;BMP280;47054;39.716;2.904;2022-12-07T10:25:19;100130.81;;;17.46
61189;BMP280;47054;39.716;2.904;2022-12-07T10:36:37;100113.22;;;17.45
61189;BMP280;47054;39.716;2.904;2022-12-07T10:39:23;100102.06;;;17.43
61189;BMP280;47054;39.716;2.904;2022-12-07T10:42:16;100105.16;;;17.41
61189;BMP280;47054;39.716;2.904;2022-12-07T10:48:11;100100.16;;;17.43
61189;BMP280;47054;39.716;2.904;2022-12-07T10:51:06;100090.97;;;17.41
61189;BMP280;47054;39.716;2.904;2022-12-07T11:00:44;100079.06;;;17.38
61189;BMP280;47054;39.716;2.904;2022-12-07T11:15:26;100056.47;;;17.39
61189;BMP280;47054;39.716;2.904;2022-12-07T11:18:26;100055.34;;;17.40
61189;BMP280;47054;39.716;2.904;2022-12-07T11:21:48;100053.00;;;17.39
61189;BMP280;47054;39.716;2.904;2022-12-07T11:24:53;100056.47;;;17.39
61189;BMP280;47054;39.716;2.904;2022-12-07T11:27:47;100043.06;;;17.36
61189;BMP280;47054;39.716;2.904;2022-12-07T11:30:47;100043.84;;;17.40
61189;BMP280;47054;39.716;2.904;2022-12-07T11:34:00;100043.84;;;17.40
61189;BMP280;47054;39.716;2.904;2022-12-07T11:36:55;100039.28;;;17.40
61189;BMP280;47054;39.716;2.904;2022-12-07T11:40:44;100031.56;;;17.39
61189;BMP280;47054;39.716;2.904;2022-12-07T11:43:28;100028.53;;;17.37
61189;BMP280;47054;39.716;2.904;2022-12-07T11:46:16;100021.22;;;17.34
61189;BMP280;47054;39.716;2.904;2022-12-07T11:49:07;100014.75;;;17.38
61189;BMP280;47054;39.716;2.904;2022-12-07T11:51:57;99997.50;;;17.36
61189;BMP280;47054;39.716;2.904;2022-12-07T11:54:44;100002.09;;;17.39
61189;BMP280;47054;39.716;2.904;2022-12-07T11:57:37;100002.88;;;17.39
61189;BMP280;47054;39.716;2.904;2022-12-07T12:00:23;99997.88;;;17.34
61189;BMP280;47054;39.716;2.904;2022-12-07T12:03:12;99999.41;;;17.39
61189;BMP280;47054;39.716;2.904;2022-12-07T12:06:00;100010.91;;;17.39
61189;BMP280;47054;39.716;2.904;2022-12-07T12:08:57;100010.56;;;17.41
61189;BMP280;47054;39.716;2.904;2022-12-07T12:21:04;99982.53;;;17.31
61189;BMP280;47054;39.716;2.904;2022-12-07T12:24:00;99979.44;;;17.29
61189;BMP280;47054;39.716;2.904;2022-12-07T12:27:03;99987.94;;;17.38
61189;BMP280;47054;39.716;2.904;2022-12-07T12:29:54;99979.50;;;17.36
61189;BMP280;47054;39.716;2.904;2022-12-07T12:32:43;99978.75;;;17.39
61189;BMP280;47054;39.716;2.904;2022-12-07T12:47:42;99955.00;;;17.38
61189;BMP280;47054;39.716;2.904;2022-12-07T12:56:11;99952.34;;;17.38
61189;BMP280;47054;39.716;2.904;2022-12-07T12:59:32;99945.81;;;17.39
61189;BMP280;47054;39.716;2.904;2022-12-07T13:02:26;99945.06;;;17.38
61189;BMP280;47054;39.716;2.904;2022-12-07T13:05:16;99938.16;;;17.37
61189;BMP280;47054;39.716;2.904;2022-12-07T13:08:21;99934.34;;;17.38
61189;BMP280;47054;39.716;2.904;2022-12-07T13:11:25;99943.13;;;17.39
61189;BMP280;47054;39.716;2.904;2022-12-07T13:17:54;99933.56;;;17.38
61189;BMP280;47054;39.716;2.904;2022-12-07T13:20:45;99921.34;;;17.37
61189;BMP280;47054;39.716;2.904;2022-12-07T13:26:23;99917.50;;;17.38
61189;BMP280;47054;39.716;2.904;2022-12-07T13:31:57;99921.69;;;17.39
61189;BMP280;47054;39.716;2.904;2022-12-07T13:34:43;99916.34;;;17.39
61189;BMP280;47054;39.716;2.904;2022-12-07T13:37:30;99903.69;;;17.36
61189;BMP280;47054;39.716;2.904;2022-12-07T13:40:21;99907.16;;;17.40
61189;BMP280;47054;39.716;2.904;2022-12-07T13:43:13;99907.94;;;17.40
61189;BMP280;47054;39.716;2.904;2022-12-07T13:45:58;99902.16;;;17.31
61189;BMP280;47054;39.716;2.904;2022-12-07T13:48:46;99906.75;;;17.34
61189;BMP280;47054;39.716;2.904;2022-12-07T13:51:34;99901.78;;;17.36
61189;BMP280;47054;39.716;2.904;2022-12-07T13:54:21;99901.78;;;17.36
61189;BMP280;47054;39.716;2.904;2022-12-07T13:57:06;99890.28;;;17.36
61189;BMP280;47054;39.716;2.904;2022-12-07T13:59:54;99908.28;;;17.39
61189;BMP280;47054;39.716;2.904;2022-12-07T14:05:41;99905.97;;;17.34
61189;BMP280;47054;39.716;2.904;2022-12-07T14:08:29;99910.63;;;17.40
61189;BMP280;47054;39.716;2.904;2022-12-07T14:11:17;99903.38;;;17.41
61189;BMP280;47054;39.716;2.904;2022-12-07T14:14:03;99904.47;;;17.36
61189;BMP280;47054;39.716;2.904;2022-12-07T14:16:58;99904.13;;;17.41
61189;BMP280;47054;39.716;2.904;2022-12-07T14:22:38;99896.84;;;17.38
61189;BMP280;47054;39.716;2.904;2022-12-07T14:25:24;99893.75;;;17.36
61189;BMP280;47054;39.716;2.904;2022-12-07T14:28:28;99888.00;;;17.34
61189;BMP280;47054;39.716;2.904;2022-12-07T14:31:18;99888.41;;;17.36
61189;BMP280;47054;39.716;2.904;2022-12-07T14:34:05;99887.25;;;17.37
61189;BMP280;47054;39.716;2.904;2022-12-07T14:36:49;99888.78;;;17.38
61189;BMP280;47054;39.716;2.904;2022-12-07T14:39:34;99893.41;;;17.41
61189;BMP280;47054;39.716;2.904;2022-12-07T14:42:19;99894.19;;;17.42
61189;BMP280;47054;39.716;2.904;2022-12-07T14:45:06;99895.34;;;17.44
61189;BMP280;47054;39.716;2.904;2022-12-07T14:47:50;99892.66;;;17.41
61189;BMP280;47054;39.716;2.904;2022-12-07T14:50:38;99900.28;;;17.42
61189;BMP280;47054;39.716;2.904;2022-12-07T14:53:29;99897.59;;;17.42
61189;BMP280;47054;39.716;2.904;2022-12-07T14:56:14;99892.22;;;17.39
61189;BMP280;47054;39.716;2.904;2022-12-07T14:58:58;99906.41;;;17.43
61189;BMP280;47054;39.716;2.904;2022-12-07T15:01:43;99894.91;;;17.42
61189;BMP280;47054;39.716;2.904;2022-12-07T15:04:27;99905.28;;;17.40
61189;BMP280;47054;39.716;2.904;2022-12-07T15:07:19;99909.88;;;17.43
61189;BMP280;47054;39.716;2.904;2022-12-07T15:10:05;99907.16;;;17.40
61189;BMP280;47054;39.716;2.904;2022-12-07T15:12:51;99907.97;;;17.44
61189;BMP280;47054;39.716;2.904;2022-12-07T15:15:36;99911.00;;;17.42
61189;BMP280;47054;39.716;2.904;2022-12-07T15:18:21;99913.72;;;17.46
61189;BMP280;47054;39.716;2.904;2022-12-07T15:21:15;99910.22;;;17.38
61189;BMP280;47054;39.716;2.904;2022-12-07T15:23:59;99908.31;;;17.42
61189;BMP280;47054;39.716;2.904;2022-12-07T15:26:44;99904.88;;;17.38
61189;BMP280;47054;39.716;2.904;2022-12-07T15:29:28;99895.69;;;17.39
61189;BMP280;47054;39.716;2.904;2022-12-07T15:32:13;99900.31;;;17.46
61189;BMP280;47054;39.716;2.904;2022-12-07T15:34:57;99901.47;;;17.45
61189;BMP280;47054;39.716;2.904;2022-12-07T15:37:42;99912.19;;;17.45
61189;BMP280;47054;39.716;2.904;2022-12-07T15:40:26;99904.94;;;17.45
61189;BMP280;47054;39.716;2.904;2022-12-07T15:43:11;99907.63;;;17.45
61189;BMP280;47054;39.716;2.904;2022-12-07T15:46:15;99912.97;;;17.45
61189;BMP280;47054;39.716;2.904;2022-12-07T15:49:01;99905.69;;;17.46
61189;BMP280;47054;39.716;2.904;2022-12-07T15:51:45;99905.69;;;17.46
61189;BMP280;47054;39.716;2.904;2022-12-07T15:54:30;99903.78;;;17.46
61189;BMP280;47054;39.716;2.904;2022-12-07T15:57:16;99886.09;;;17.31
61189;BMP280;47054;39.716;2.904;2022-12-07T16:00:01;99909.91;;;17.47
61189;BMP280;47054;39.716;2.904;2022-12-07T16:02:48;99906.47;;;17.46
61189;BMP280;47054;39.716;2.904;2022-12-07T16:05:32;99909.13;;;17.46
61189;BMP280;47054;39.716;2.904;2022-12-07T16:08:17;99903.78;;;17.46
61189;BMP280;47054;39.716;2.904;2022-12-07T16:11:06;99895.69;;;17.43
61189;BMP280;47054;39.716;2.904;2022-12-07T16:13:50;99901.88;;;17.47
61189;BMP280;47054;39.716;2.904;2022-12-07T16:16:35;99905.31;;;17.47
61189;BMP280;47054;39.716;2.904;2022-12-07T16:19:19;99898.41;;;17.46
61189;BMP280;47054;39.716;2.904;2022-12-07T16:22:04;99891.09;;;17.40
61189;BMP280;47054;39.716;2.904;2022-12-07T16:24:48;99908.75;;;17.48
61189;BMP280;47054;39.716;2.904;2022-12-07T16:27:34;99907.63;;;17.49
61189;BMP280;47054;39.716;2.904;2022-12-07T16:30:19;99903.38;;;17.44
61189;BMP280;47054;39.716;2.904;2022-12-07T16:33:04;99903.41;;;17.48
61189;BMP280;47054;39.716;2.904;2022-12-07T16:35:48;99907.63;;;17.49
61189;BMP280;47054;39.716;2.904;2022-12-07T16:38:33;99907.63;;;17.49
61189;BMP280;47054;39.716;2.904;2022-12-07T16:41:18;99901.47;;;17.45
61189;BMP280;47054;39.716;2.904;2022-12-07T16:44:05;99898.41;;;17.46
61189;BMP280;47054;39.716;2.904;2022-12-07T16:46:50;99904.94;;;17.49
61189;BMP280;47054;39.716;2.904;2022-12-07T16:49:34;99900.34;;;17.49
61189;BMP280;47054;39.716;2.904;2022-12-07T16:52:19;99888.09;;;17.48
61189;BMP280;47054;39.716;2.904;2022-12-07T16:55:04;99884.25;;;17.49
61189;BMP280;47054;39.716;2.904;2022-12-07T16:57:50;99880.06;;;17.48
61189;BMP280;47054;39.716;2.904;2022-12-07T17:00:34;99861.22;;;17.38
61189;BMP280;47054;39.716;2.904;2022-12-07T17:03:20;99882.34;;;17.50
61189;BMP280;47054;39.716;2.904;2022-12-07T17:06:14;99877.41;;;17.52
61189;BMP280;47054;39.716;2.904;2022-12-07T17:08:59;99877.00;;;17.50
61189;BMP280;47054;39.716;2.904;2022-12-07T17:11:44;99878.53;;;17.51
61189;BMP280;47054;39.716;2.904;2022-12-07T17:14:38;99874.69;;;17.45
61189;BMP280;47054;39.716;2.904;2022-12-07T17:17:41;99895.75;;;17.50
61189;BMP280;47054;39.716;2.904;2022-12-07T17:20:27;99893.06;;;17.50
61189;BMP280;47054;39.716;2.904;2022-12-07T17:23:11;99892.28;;;17.46
61189;BMP280;47054;39.716;2.904;2022-12-07T17:25:56;99883.13;;;17.50
61189;BMP280;47054;39.716;2.904;2022-12-07T17:28:41;99885.81;;;17.50
61189;BMP280;47054;39.716;2.904;2022-12-07T17:31:26;99881.56;;;17.49
61189;BMP280;47054;39.716;2.904;2022-12-07T17:34:12;99884.69;;;17.51